ROTAER D-AMDT 37/19 Ver Mudanças

Teixeira de Freitas ( SNTF ) / TEIXEIRA DE FREITAS, BA 17 31 28S/039 40 06W
AD PUB Governo do Estado UTC-3 VFR L21 , L26 105 (344)

11 - L12 - ( 1460x30 ASPH 31/F/A/X/T L14 , L15 ) - L12 - 29

SBRE (CINDACTA 3)

RMK -

HORÁRIO DE FUNCIONAMENTO
  1. AD OPS VFR Noturna PPR e COOR (O/R) através TEL: (73) 2919955
INFORMAÇÃO METEOROLÓGICA FORNECIDA
  1. MET Estação de Radiodifusão Automática de Aeródromo (ERAA) FREQ 132.350MHZ.
  2. Usar código de localidade SNTF para acessar METAR/SPECI na REDEMET.
INFORMAÇÃO ADICIONAL
  1. Contatos telefônicos: (71) 3241-1982, (77) 8116-0829, (71) 9670-6361, (77) 9993-2336 e (77) 9909-5421 - São Francisco
TEMP (0)

Suplementos AIP (0)

NOTAM (0)

Nascer/Por do Sol

09:00

20:27


METAR

TAF

071800Z 0718/0806 11012KT 9000 SCT020 BKN030 TX23/0719Z TN18/0804Z TEMPO 0718/0722 4000 RA BR SCT008 BKN015 TEMPO 0805/0806 4000 RA BR BKN008 BKN015 RMK PDU=


Cartas (0)


Rotas Preferenciais (0)